createdAt,value
2023-05-22T00:02:17.888Z,73.06
2023-05-22T00:05:12.545Z,73.28
2023-05-22T00:08:06.799Z,73.15
2023-05-22T00:11:01.090Z,73.21
2023-05-22T00:14:04.600Z,73.32
2023-05-22T00:16:58.589Z,73.47
2023-05-22T00:20:04.050Z,73.58
2023-05-22T00:23:03.398Z,73.52
2023-05-22T00:26:09.783Z,73.65
2023-05-22T00:29:20.733Z,73.76
2023-05-22T00:32:14.337Z,73.65
2023-05-22T00:35:06.736Z,73.77
2023-05-22T00:38:31.231Z,73.84
2023-05-22T00:41:24.327Z,73.89
2023-05-22T00:44:35.302Z,74.37
2023-05-22T00:47:38.945Z,74.68
2023-05-22T00:50:38.835Z,74.69
2023-05-22T00:53:39.477Z,74.87
2023-05-22T00:56:35.711Z,75.02
2023-05-22T00:59:46.652Z,75.18
2023-05-22T01:02:57.601Z,75.24
2023-05-22T01:06:08.741Z,74.88
2023-05-22T01:09:01.780Z,74.39
2023-05-22T01:12:00.113Z,73.97
2023-05-22T01:14:55.923Z,74.09
2023-05-22T01:17:54.777Z,74.09
2023-05-22T01:20:52.198Z,73.85
2023-05-22T01:24:11.790Z,73.68
2023-05-22T01:27:19.806Z,73.82
2023-05-22T01:30:21.330Z,73.96
2023-05-22T01:33:15.227Z,73.86
2023-05-22T01:36:11.855Z,73.76
2023-05-22T01:39:13.283Z,73.72
2023-05-22T01:42:12.498Z,73.70
2023-05-22T01:45:10.324Z,73.68
2023-05-22T01:48:03.506Z,73.64
2023-05-22T01:50:58.956Z,73.76
2023-05-22T01:53:58.877Z,74.02
2023-05-22T01:56:56.188Z,74.01
2023-05-22T02:00:02.659Z,73.89
2023-05-22T02:02:58.301Z,74.32
2023-05-22T02:05:51.472Z,74.50
2023-05-22T02:08:43.610Z,74.62
2023-05-22T02:11:39.560Z,74.77
2023-05-22T02:14:31.073Z,74.82
2023-05-22T02:17:32.393Z,74.74
2023-05-22T02:20:31.339Z,74.74
2023-05-22T02:23:30.003Z,75.05
2023-05-22T02:26:40.922Z,75.05
2023-05-22T02:29:32.098Z,75.15
2023-05-22T02:32:43.430Z,75.70
2023-05-22T02:35:47.255Z,75.48
2023-05-22T02:38:58.513Z,75.14
2023-05-22T02:42:01.017Z,74.92
2023-05-22T02:45:13.027Z,74.23
2023-05-22T02:48:24.258Z,73.90
2023-05-22T02:51:18.143Z,73.59
2023-05-22T02:54:09.073Z,74.01
2023-05-22T02:57:02.967Z,74.49
2023-05-22T02:59:59.392Z,74.47
2023-05-22T03:03:04.383Z,74.51
2023-05-22T03:06:10.604Z,74.65
2023-05-22T03:09:21.542Z,75.33
2023-05-22T03:12:33.139Z,75.64
2023-05-22T03:15:26.361Z,75.89
2023-05-22T03:18:37.984Z,76.20
2023-05-22T03:21:42.239Z,76.15
2023-05-22T03:24:41.913Z,76.30
2023-05-22T03:27:52.756Z,76.12
2023-05-22T03:30:55.624Z,76.24
2023-05-22T03:33:51.954Z,76.22
2023-05-22T03:37:03.255Z,76.47
2023-05-22T03:40:07.957Z,76.48
2023-05-22T03:43:12.653Z,76.33
2023-05-22T03:46:23.741Z,76.61
2023-05-22T03:49:35.191Z,76.70
2023-05-22T03:52:35.837Z,76.26
2023-05-22T03:55:46.654Z,75.61
2023-05-22T03:58:48.865Z,75.51
2023-05-22T04:02:01.542Z,75.58
2023-05-22T04:05:05.561Z,75.33
2023-05-22T04:08:07.531Z,75.04
2023-05-22T04:11:18.752Z,75.21
2023-05-22T04:14:22.096Z,75.05
2023-05-22T04:17:36.624Z,74.66
2023-05-22T04:20:47.759Z,74.68
2023-05-22T04:23:58.526Z,74.29
2023-05-22T04:27:10.128Z,74.07
2023-05-22T04:30:17.209Z,74.05
2023-05-22T04:33:29.182Z,74.21
2023-05-22T04:36:40.242Z,74.29
2023-05-22T04:39:44.545Z,73.96
2023-05-22T04:42:42.602Z,74.20
2023-05-22T04:45:56.933Z,74.58
2023-05-22T04:49:08.709Z,74.89
2023-05-22T04:52:19.912Z,74.65
2023-05-22T04:55:34.115Z,74.29
2023-05-22T04:58:32.234Z,74.35
2023-05-22T05:01:25.232Z,74.39
2023-05-22T05:04:19.110Z,74.23
2023-05-22T05:07:12.253Z,73.93
2023-05-22T05:10:21.819Z,74.29
2023-05-22T05:13:26.405Z,74.69
2023-05-22T05:16:36.253Z,74.73
2023-05-22T05:19:47.129Z,74.76
2023-05-22T05:22:58.062Z,75.13
2023-05-22T05:26:09.392Z,75.57
2023-05-22T05:29:14.263Z,75.37
2023-05-22T05:32:25.302Z,75.35
2023-05-22T05:35:45.482Z,75.18
2023-05-22T05:38:54.503Z,75.61
2023-05-22T05:41:47.871Z,75.67
2023-05-22T05:44:58.734Z,75.52
2023-05-22T05:48:09.893Z,75.42
2023-05-22T05:51:07.829Z,75.12
2023-05-22T05:54:18.646Z,74.84
2023-05-22T05:57:14.139Z,74.75
2023-05-22T06:00:25.913Z,74.01
2023-05-22T06:03:27.384Z,73.82
2023-05-22T06:06:37.112Z,73.33
2023-05-22T06:09:56.027Z,72.85
2023-05-22T06:13:08.662Z,72.29
2023-05-22T06:16:04.820Z,71.70
2023-05-22T06:19:01.187Z,71.79
2023-05-22T06:21:55.788Z,71.74
2023-05-22T06:24:58.000Z,71.25
2023-05-22T06:28:03.782Z,71.09
2023-05-22T06:30:54.947Z,70.69
2023-05-22T06:33:46.576Z,70.65
2023-05-22T06:36:43.939Z,70.68
2023-05-22T06:39:40.019Z,70.66
2023-05-22T06:43:12.556Z,70.43
2023-05-22T06:46:26.081Z,70.44
2023-05-22T06:49:27.441Z,70.66
2023-05-22T06:52:21.950Z,70.33
2023-05-22T06:55:15.437Z,69.66
2023-05-22T06:58:26.598Z,69.36
2023-05-22T07:01:23.748Z,69.45
2023-05-22T07:04:37.924Z,68.96
2023-05-22T07:07:53.190Z,68.39
2023-05-22T07:10:57.916Z,67.98
2023-05-22T07:14:09.189Z,67.31
2023-05-22T07:17:22.218Z,66.14
2023-05-22T07:20:28.462Z,65.46
2023-05-22T07:23:51.632Z,64.81
2023-05-22T07:26:59.065Z,64.75
2023-05-22T07:29:52.961Z,64.37
2023-05-22T07:32:44.974Z,63.79
2023-05-22T07:35:47.378Z,62.83
2023-05-22T07:38:44.744Z,62.34
2023-05-22T07:41:35.640Z,62.20
2023-05-22T07:44:29.294Z,61.12
2023-05-22T07:47:20.405Z,60.44
2023-05-22T07:50:12.705Z,60.11
2023-05-22T07:53:08.539Z,59.66
2023-05-22T07:56:00.688Z,58.84
2023-05-22T07:58:54.428Z,58.15
2023-05-22T08:01:45.502Z,56.87
2023-05-22T08:04:36.298Z,55.64
2023-05-22T08:07:27.163Z,55.47
2023-05-22T08:10:24.012Z,54.26
2023-05-22T08:13:19.687Z,52.59
2023-05-22T08:16:11.330Z,50.94
2023-05-22T08:19:02.007Z,50.02
2023-05-22T08:21:58.281Z,49.45
2023-05-22T08:24:49.107Z,48.11
2023-05-22T08:27:39.749Z,46.07
2023-05-22T08:30:30.523Z,45.33
2023-05-22T08:33:21.277Z,44.94
2023-05-22T08:36:12.081Z,43.69
2023-05-22T08:39:07.864Z,42.81
2023-05-22T08:41:59.642Z,42.50
2023-05-22T08:44:50.356Z,41.49
2023-05-22T08:47:45.267Z,40.23
2023-05-22T08:50:38.708Z,39.74
2023-05-22T08:53:30.216Z,39.02
2023-05-22T08:56:21.610Z,37.95
2023-05-22T08:59:12.863Z,38.17
2023-05-22T09:02:06.828Z,37.85
2023-05-22T09:04:57.749Z,37.37
2023-05-22T09:07:49.156Z,36.35
2023-05-22T09:10:40.225Z,35.81
2023-05-22T09:13:31.654Z,35.01
2023-05-22T09:16:22.701Z,34.10
2023-05-22T09:19:14.100Z,33.23
2023-05-22T09:22:06.506Z,32.40
2023-05-22T09:24:59.426Z,32.42
2023-05-22T09:27:49.798Z,31.93
2023-05-22T09:30:42.768Z,31.01
2023-05-22T09:33:33.705Z,29.95
2023-05-22T09:36:32.616Z,30.04
2023-05-22T09:39:23.143Z,29.53
2023-05-22T09:42:18.288Z,29.22
2023-05-22T09:45:10.214Z,29.32
2023-05-22T09:48:01.066Z,29.35
2023-05-22T09:50:52.312Z,28.88
2023-05-22T09:53:44.372Z,28.80
2023-05-22T09:56:39.753Z,28.11
2023-05-22T09:59:33.198Z,28.08
2023-05-22T10:02:24.412Z,28.00
2023-05-22T10:05:22.155Z,28.94
2023-05-22T10:08:15.529Z,30.12
2023-05-22T10:11:07.477Z,31.13
2023-05-22T10:13:59.046Z,30.48
2023-05-22T10:16:53.659Z,30.04
2023-05-22T10:19:45.378Z,30.03
2023-05-22T10:22:37.975Z,29.95
2023-05-22T10:25:28.807Z,29.42
2023-05-22T10:28:36.905Z,29.82
2023-05-22T10:31:30.189Z,29.12
2023-05-22T10:34:42.764Z,28.07
2023-05-22T10:37:44.553Z,27.58
2023-05-22T10:40:36.559Z,27.27
2023-05-22T10:43:31.167Z,26.97
2023-05-22T10:46:22.696Z,27.17
2023-05-22T10:49:22.709Z,27.71
2023-05-22T10:52:15.058Z,27.80
2023-05-22T10:55:09.561Z,27.99
2023-05-22T10:58:13.907Z,27.02
2023-05-22T11:01:15.012Z,28.13
2023-05-22T11:04:12.523Z,29.02
2023-05-22T11:07:09.009Z,28.96
2023-05-22T11:10:02.833Z,28.87
2023-05-22T11:13:12.710Z,29.43
2023-05-22T11:16:06.112Z,28.38
2023-05-22T11:19:21.138Z,27.96
2023-05-22T11:22:14.089Z,26.76
2023-05-22T11:25:07.711Z,25.64
2023-05-22T11:27:58.997Z,25.71
2023-05-22T11:30:49.704Z,25.58
2023-05-22T11:33:40.469Z,24.80
2023-05-22T11:36:31.856Z,24.25
2023-05-22T11:39:24.434Z,23.84
2023-05-22T11:42:15.158Z,23.49
2023-05-22T11:45:06.170Z,23.28
2023-05-22T11:47:56.931Z,22.74
2023-05-22T11:50:48.443Z,22.77
2023-05-22T11:53:39.130Z,22.41
2023-05-22T11:56:29.413Z,22.28
2023-05-22T11:59:22.260Z,22.30
2023-05-22T12:02:13.752Z,22.70
2023-05-22T12:05:04.734Z,22.57
2023-05-22T12:07:55.518Z,21.86
2023-05-22T12:10:50.703Z,21.50
2023-05-22T12:13:41.922Z,22.14
2023-05-22T12:16:35.695Z,21.75
2023-05-22T12:19:26.970Z,21.46
2023-05-22T12:22:17.671Z,21.50
2023-05-22T12:25:13.986Z,21.03
2023-05-22T12:28:04.148Z,20.82
2023-05-22T12:30:57.983Z,21.31
2023-05-22T12:33:48.496Z,22.40
2023-05-22T12:36:41.993Z,22.47
2023-05-22T12:39:32.603Z,22.01
2023-05-22T12:42:23.298Z,21.82
2023-05-22T12:45:14.577Z,21.71
2023-05-22T12:48:05.232Z,22.39
2023-05-22T12:50:56.053Z,23.21
2023-05-22T12:53:46.921Z,23.93
2023-05-22T12:56:37.494Z,24.64
2023-05-22T12:59:28.028Z,25.10
2023-05-22T13:02:18.823Z,23.98
2023-05-22T13:05:09.874Z,23.92
2023-05-22T13:08:00.867Z,24.66
2023-05-22T13:10:51.530Z,24.56
2023-05-22T13:13:42.013Z,23.68
2023-05-22T13:16:33.338Z,24.23
2023-05-22T13:19:24.004Z,25.05
2023-05-22T13:22:14.968Z,24.63
2023-05-22T13:25:05.812Z,25.25
2023-05-22T13:27:56.728Z,26.43
2023-05-22T13:30:47.570Z,26.61
2023-05-22T13:33:38.256Z,26.93
2023-05-22T13:36:29.144Z,27.52
2023-05-22T13:39:20.064Z,28.38
2023-05-22T13:42:10.707Z,29.08
2023-05-22T13:45:01.187Z,29.14
2023-05-22T13:47:51.761Z,28.38
2023-05-22T13:50:42.354Z,27.73
2023-05-22T13:53:33.293Z,27.54
2023-05-22T13:56:24.187Z,27.74
2023-05-22T13:59:15.058Z,28.03
2023-05-22T14:02:06.134Z,28.55
2023-05-22T14:04:56.937Z,28.64
2023-05-22T14:07:47.675Z,28.68
2023-05-22T14:10:38.974Z,28.20
2023-05-22T14:13:29.504Z,28.65
2023-05-22T14:16:20.260Z,29.40
2023-05-22T14:19:11.080Z,29.35
2023-05-22T14:22:01.895Z,29.37
2023-05-22T14:24:52.890Z,30.20
2023-05-22T14:27:45.962Z,30.54
2023-05-22T14:30:36.697Z,30.71
2023-05-22T14:33:27.245Z,31.23
2023-05-22T14:36:18.032Z,31.42
2023-05-22T14:39:08.708Z,31.11
2023-05-22T14:41:59.668Z,31.15
2023-05-22T14:44:50.372Z,31.43
2023-05-22T14:47:43.294Z,31.67
2023-05-22T14:50:33.885Z,31.35
2023-05-22T14:53:24.772Z,31.06
2023-05-22T14:56:15.777Z,31.28
2023-05-22T14:59:06.601Z,31.05
2023-05-22T15:01:57.217Z,31.44
2023-05-22T15:04:48.032Z,31.72
2023-05-22T15:07:44.645Z,32.29
2023-05-22T15:10:39.735Z,32.48
2023-05-22T15:13:30.373Z,32.39
2023-05-22T15:16:23.186Z,32.34
2023-05-22T15:19:14.031Z,32.53
2023-05-22T15:22:18.239Z,32.62
2023-05-22T15:25:12.008Z,32.50
2023-05-22T15:28:02.764Z,32.20
2023-05-22T15:30:54.118Z,32.28
2023-05-22T15:33:44.751Z,32.05
2023-05-22T15:36:36.706Z,32.48
2023-05-22T15:39:30.555Z,32.81
2023-05-22T15:42:22.073Z,33.16
2023-05-22T15:45:13.349Z,33.34
2023-05-22T15:48:05.011Z,33.60
2023-05-22T15:50:55.301Z,33.79
2023-05-22T15:53:46.456Z,33.89
2023-05-22T15:56:37.008Z,33.97
2023-05-22T15:59:27.546Z,34.13
2023-05-22T16:02:21.127Z,34.41
2023-05-22T16:05:12.237Z,34.46
2023-05-22T16:08:03.205Z,34.57
2023-05-22T16:10:55.701Z,34.75
2023-05-22T16:13:55.778Z,34.67
2023-05-22T16:16:46.429Z,34.56
2023-05-22T16:19:40.287Z,34.53
2023-05-22T16:22:44.075Z,35.01
2023-05-22T16:25:39.296Z,35.24
2023-05-22T16:28:30.798Z,35.26
2023-05-22T16:31:21.691Z,35.40
2023-05-22T16:34:12.489Z,35.43
2023-05-22T16:37:03.282Z,35.52
2023-05-22T16:39:53.909Z,35.61
2023-05-22T16:42:44.765Z,35.67
2023-05-22T16:45:35.937Z,36.09
2023-05-22T16:48:26.985Z,36.26
2023-05-22T16:51:17.665Z,36.28
2023-05-22T16:54:08.493Z,36.24
2023-05-22T16:56:59.290Z,36.33
2023-05-22T16:59:50.797Z,36.21
2023-05-22T17:02:41.967Z,36.36
2023-05-22T17:05:36.276Z,36.48
2023-05-22T17:08:29.622Z,36.49
2023-05-22T17:11:20.180Z,36.84
2023-05-22T17:14:11.598Z,37.21
2023-05-22T17:17:02.597Z,37.58
2023-05-22T17:19:54.349Z,37.70
2023-05-22T17:22:45.239Z,37.71
2023-05-22T17:25:38.658Z,37.95
2023-05-22T17:28:29.364Z,37.97
2023-05-22T17:31:23.876Z,38.01
2023-05-22T17:34:14.508Z,38.02
2023-05-22T17:37:08.046Z,38.20
2023-05-22T17:39:58.525Z,38.37
2023-05-22T17:42:48.994Z,38.36
2023-05-22T17:45:39.788Z,38.16
2023-05-22T17:48:30.429Z,38.47
2023-05-22T17:51:21.289Z,38.42
2023-05-22T17:54:11.913Z,38.57
2023-05-22T17:57:04.224Z,38.44
2023-05-22T17:59:54.721Z,38.79
2023-05-22T18:02:48.209Z,38.79
2023-05-22T18:05:39.191Z,38.85
2023-05-22T18:08:32.118Z,38.91
2023-05-22T18:11:22.716Z,38.77
2023-05-22T18:14:13.412Z,38.95
2023-05-22T18:17:07.890Z,39.10
2023-05-22T18:19:58.580Z,39.46
2023-05-22T18:22:52.181Z,40.03
2023-05-22T18:25:43.480Z,40.30
2023-05-22T18:28:36.483Z,40.58
2023-05-22T18:31:36.035Z,40.80
2023-05-22T18:34:32.528Z,40.85
2023-05-22T18:37:26.251Z,41.10
2023-05-22T18:40:19.077Z,41.33
2023-05-22T18:43:12.019Z,41.71
2023-05-22T18:46:02.876Z,41.92
2023-05-22T18:48:56.676Z,42.28
2023-05-22T18:52:07.649Z,42.73
2023-05-22T18:55:23.322Z,42.93
2023-05-22T18:58:23.124Z,43.00
2023-05-22T19:01:13.840Z,43.17
2023-05-22T19:04:12.647Z,43.41
2023-05-22T19:07:08.992Z,43.65
2023-05-22T19:09:59.769Z,43.87
2023-05-22T19:12:53.575Z,43.93
2023-05-22T19:15:44.371Z,44.12
2023-05-22T19:18:35.150Z,44.09
2023-05-22T19:21:26.561Z,44.21
2023-05-22T19:24:17.673Z,44.29
2023-05-22T19:27:11.458Z,44.55
2023-05-22T19:30:22.027Z,44.56
2023-05-22T19:33:14.882Z,44.55
2023-05-22T19:36:15.560Z,44.51
2023-05-22T19:39:16.607Z,44.44
2023-05-22T19:42:09.643Z,44.50
2023-05-22T19:45:02.283Z,44.71
2023-05-22T19:47:52.828Z,44.98
2023-05-22T19:50:43.517Z,45.32
2023-05-22T19:53:54.258Z,45.62
2023-05-22T19:56:45.003Z,45.84
2023-05-22T19:59:43.271Z,46.05
2023-05-22T20:02:34.237Z,46.25
2023-05-22T20:05:36.554Z,46.72
2023-05-22T20:08:30.541Z,46.92
2023-05-22T20:11:29.303Z,47.28
2023-05-22T20:14:22.720Z,47.55
2023-05-22T20:17:13.650Z,47.86
2023-05-22T20:20:08.119Z,48.31
2023-05-22T20:23:01.943Z,48.58
2023-05-22T20:26:02.196Z,48.89
2023-05-22T20:28:53.050Z,49.26
2023-05-22T20:31:43.923Z,49.46
2023-05-22T20:34:36.981Z,49.74
2023-05-22T20:37:34.915Z,49.90
2023-05-22T20:40:30.162Z,50.12
2023-05-22T20:43:20.602Z,50.40
2023-05-22T20:46:14.512Z,50.78
2023-05-22T20:49:09.103Z,50.93
2023-05-22T20:52:03.010Z,51.08
2023-05-22T20:54:57.271Z,51.31
2023-05-22T20:57:57.655Z,51.59
2023-05-22T21:00:59.069Z,51.84
2023-05-22T21:03:59.969Z,52.16
2023-05-22T21:07:00.022Z,52.37
2023-05-22T21:10:00.954Z,52.51
2023-05-22T21:12:54.466Z,52.65
2023-05-22T21:15:54.437Z,52.94
2023-05-22T21:18:53.768Z,53.20
2023-05-22T21:21:46.814Z,53.51
2023-05-22T21:24:37.520Z,53.67
2023-05-22T21:27:28.257Z,53.81
2023-05-22T21:30:39.555Z,53.84
2023-05-22T21:33:33.960Z,54.07
2023-05-22T21:36:28.117Z,54.26
2023-05-22T21:39:18.915Z,54.55
2023-05-22T21:42:10.237Z,54.49
2023-05-22T21:45:11.787Z,54.55
2023-05-22T21:48:11.664Z,54.68
2023-05-22T21:51:05.685Z,54.89
2023-05-22T21:54:16.948Z,55.13
2023-05-22T21:57:08.282Z,55.10
2023-05-22T22:00:02.241Z,55.40
2023-05-22T22:02:57.592Z,55.69
2023-05-22T22:06:09.673Z,55.93
2023-05-22T22:09:03.668Z,56.20
2023-05-22T22:12:14.814Z,56.37
2023-05-22T22:15:08.712Z,56.57
2023-05-22T22:18:02.697Z,56.77
2023-05-22T22:20:56.227Z,57.03
2023-05-22T22:23:52.133Z,57.28
2023-05-22T22:27:03.811Z,57.61
2023-05-22T22:29:57.438Z,57.77
2023-05-22T22:33:04.470Z,57.88
2023-05-22T22:35:59.898Z,57.91
2023-05-22T22:38:52.778Z,57.93
2023-05-22T22:41:46.662Z,58.01
2023-05-22T22:44:37.383Z,58.12
2023-05-22T22:47:30.368Z,58.23
2023-05-22T22:50:24.463Z,58.42
2023-05-22T22:53:35.206Z,58.52
2023-05-22T22:56:39.536Z,58.71
2023-05-22T22:59:50.397Z,58.73
2023-05-22T23:02:51.385Z,58.78
2023-05-22T23:06:06.523Z,58.88
2023-05-22T23:08:59.141Z,58.95
2023-05-22T23:12:01.610Z,58.95
2023-05-22T23:14:55.600Z,59.16
2023-05-22T23:17:59.214Z,59.19
2023-05-22T23:21:00.740Z,59.32
2023-05-22T23:24:06.146Z,59.43
2023-05-22T23:27:16.966Z,59.53
2023-05-22T23:30:26.871Z,59.67
2023-05-22T23:33:36.401Z,59.75
2023-05-22T23:36:46.657Z,59.90
2023-05-22T23:39:50.347Z,60.14
2023-05-22T23:42:41.020Z,60.14
2023-05-22T23:45:51.838Z,60.22
2023-05-22T23:49:02.546Z,60.12
2023-05-22T23:52:04.340Z,60.07
2023-05-22T23:55:15.149Z,60.07
2023-05-22T23:58:16.135Z,60.03
